^^
Datos históricos de la estación: Murcia-Puente Tocinos
Diario Informe para Marzo 7, 2019 Unidades:  Ambas    Ingés   Métrico
Diario Semanal Mensual Anual
  Máxima: Mínima: Promedio:
Temperatura: 103.5 °F /  39.7 °C 77 °F /  25 °C 87.1 °F /  30.6 °C
Punto de rocio: 73.4 °F /  23 °C 47.7 °F /  8.7 °C 63.5 °F /  17.5 °C
Humedad: 85% 15.6% 52%
Velocidad viento: 11.8mph /  19km/h - 4.8mph /  7.8km/h
Racha viento: 21mph /  33.8km/h - -
Viento- - SSE
Presión: 29.8 in /  1010.6 hPa 29.7 in /  1007.1 hPa -
Precipitación: 0 in /  0.0 mm    
 
 
Tabla de datos para Marzo 7, 2019
Hora Temperatura Punto de rocio Presión Viento Velocidad viento Racha viento Humedad Intensidad lluvia(por hora) Nubes
00:04 81.5 °F /  27.5 °C 71.1 °F /  21.7 °C 29.8in /  1008.7hPa NNE 4mph /  6.5km/h 8.5mph /  13.7km/h 71% 0in /  0.0mm
00:09 81.3 °F /  27.4 °C 70.9 °F /  21.6 °C 29.8in /  1008.7hPa NNE 4.2mph /  6.8km/h 9.2mph /  14.8km/h 70.5% 0in /  0.0mm
00:14 81.3 °F /  27.4 °C 70.9 °F /  21.6 °C 29.8in /  1008.7hPa NNE 5.2mph /  8.4km/h 9mph /  14.5km/h 70.5% 0in /  0.0mm
00:19 81.3 °F /  27.4 °C 71.1 °F /  21.7 °C 29.8in /  1008.8hPa NNE 5.1mph /  8.2km/h 8.5mph /  13.7km/h 71.2% 0in /  0.0mm
00:24 81.1 °F /  27.3 °C 71.4 °F /  21.9 °C 29.8in /  1008.8hPa NNE 4.7mph /  7.6km/h 11.5mph /  18.5km/h 72.4% 0in /  0.0mm
00:29 81 °F /  27.2 °C 71.4 °F /  21.9 °C 29.8in /  1008.8hPa NNE 4.8mph /  7.8km/h 12mph /  19.3km/h 73% 0in /  0.0mm
00:34 80.8 °F /  27.1 °C 71.4 °F /  21.9 °C 29.8in /  1008.8hPa North 5.4mph /  8.7km/h 8mph /  12.9km/h 73.4% 0in /  0.0mm
00:39 80.8 °F /  27.1 °C 71.8 °F /  22.1 °C 29.8in /  1008.8hPa NE 5.2mph /  8.3km/h 7.4mph /  11.9km/h 74% 0in /  0.0mm
00:44 80.6 °F /  27 °C 71.6 °F /  22 °C 29.8in /  1008.8hPa NNE 4mph /  6.5km/h 9.7mph /  15.6km/h 74.2% 0in /  0.0mm
00:49 80.4 °F /  26.9 °C 71.8 °F /  22.1 °C 29.8in /  1008.8hPa NNE 4.2mph /  6.8km/h 10mph /  16.1km/h 75% 0in /  0.0mm
00:54 80.2 °F /  26.8 °C 72 °F /  22.2 °C 29.8in /  1008.8hPa North 5.4mph /  8.7km/h 8.7mph /  14km/h 76% 0in /  0.0mm
00:59 80.1 °F /  26.7 °C 72 °F /  22.2 °C 29.8in /  1008.8hPa NNE 5.4mph /  8.7km/h 9.2mph /  14.8km/h 76.6% 0in /  0.0mm
01:04 80.1 °F /  26.7 °C 72.1 °F /  22.3 °C 29.8in /  1008.8hPa NNE 5.4mph /  8.7km/h 11.5mph /  18.5km/h 77% 0in /  0.0mm
01:09 79.9 °F /  26.6 °C 72 °F /  22.2 °C 29.8in /  1008.5hPa NE 5.3mph /  8.6km/h 12mph /  19.3km/h 77% 0in /  0.0mm
01:14 79.9 °F /  26.6 °C 72.3 °F /  22.4 °C 29.8in /  1008.4hPa North 5.2mph /  8.4km/h 7mph /  11.3km/h 77.9% 0in /  0.0mm
01:19 79.9 °F /  26.6 °C 72.3 °F /  22.4 °C 29.8in /  1008.6hPa NNE 5mph /  8km/h 6.2mph /  10km/h 78% 0in /  0.0mm
01:24 79.9 °F /  26.6 °C 72.7 °F /  22.6 °C 29.8in /  1008.6hPa NNE 3.6mph /  5.8km/h 6mph /  9.7km/h 78.6% 0in /  0.0mm
01:29 79.7 °F /  26.5 °C 72.7 °F /  22.6 °C 29.8in /  1008.6hPa NNO 3.5mph /  5.6km/h 6mph /  9.7km/h 79% 0in /  0.0mm
01:34 79.7 °F /  26.5 °C 72.7 °F /  22.6 °C 29.8in /  1008.6hPa NNE 3.1mph /  5km/h 6mph /  9.7km/h 79% 0in /  0.0mm
01:39 79.5 °F /  26.4 °C 72.5 °F /  22.5 °C 29.8in /  1008.6hPa NE 3mph /  4.8km/h 5.8mph /  9.3km/h 79.3% 0in /  0.0mm
01:44 79.5 °F /  26.4 °C 72.7 °F /  22.6 °C 29.8in /  1008.6hPa NNO 2.4mph /  3.9km/h 6mph /  9.7km/h 80% 0in /  0.0mm
01:49 79.3 °F /  26.3 °C 72.7 °F /  22.6 °C 29.8in /  1008.6hPa North 2.4mph /  3.9km/h 5mph /  8km/h 80% 0in /  0.0mm
01:54 79.3 °F /  26.3 °C 72.9 °F /  22.7 °C 29.8in /  1008.4hPa NNE 2.1mph /  3.3km/h 5.9mph /  9.5km/h 80.7% 0in /  0.0mm
01:59 79.2 °F /  26.2 °C 72.9 °F /  22.7 °C 29.8in /  1008.3hPa NE 2.2mph /  3.6km/h 6mph /  9.7km/h 81% 0in /  0.0mm
02:04 79.2 °F /  26.2 °C 72.7 °F /  22.6 °C 29.8in /  1008.3hPa North 3.1mph /  5km/h 6mph /  9.7km/h 81% 0in /  0.0mm
02:09 79 °F /  26.1 °C 72.7 °F /  22.6 °C 29.8in /  1008.3hPa NO 3.1mph /  5km/h 4mph /  6.4km/h 81.2% 0in /  0.0mm
02:14 79 °F /  26.1 °C 73 °F /  22.8 °C 29.8in /  1008.3hPa NNO 1.6mph /  2.5km/h 5.2mph /  8.4km/h 82% 0in /  0.0mm
02:19 79 °F /  26.1 °C 72.9 °F /  22.7 °C 29.8in /  1008.3hPa NNE 1.5mph /  2.4km/h 5mph /  8km/h 81.5% 0in /  0.0mm
02:24 79 °F /  26.1 °C 73 °F /  22.8 °C 29.8in /  1008.0hPa North 2mph /  3.2km/h 5mph /  8km/h 82% 0in /  0.0mm
02:29 79 °F /  26.1 °C 73 °F /  22.8 °C 29.8in /  1007.9hPa North 2mph /  3.2km/h 5mph /  8km/h 82% 0in /  0.0mm
02:34 79 °F /  26.1 °C 73 °F /  22.8 °C 29.8in /  1008.0hPa NNE 2mph /  3.2km/h 5mph /  8km/h 82% 0in /  0.0mm
02:39 79 °F /  26.1 °C 73 °F /  22.8 °C 29.8in /  1008.0hPa NNO 2mph /  3.2km/h 3.6mph /  5.8km/h 82% 0in /  0.0mm
02:44 79 °F /  26.1 °C 73.4 °F /  23 °C 29.8in /  1008.0hPa NNO 1.4mph /  2.3km/h 4mph /  6.4km/h 82.8% 0in /  0.0mm
02:49 79 °F /  26.1 °C 73.4 °F /  23 °C 29.8in /  1008.0hPa NO 1.4mph /  2.2km/h 4.6mph /  7.4km/h 83% 0in /  0.0mm
02:54 79 °F /  26.1 °C 73.4 °F /  23 °C 29.8in /  1007.9hPa NO 1.7mph /  2.8km/h 5mph /  8km/h 83% 0in /  0.0mm
02:59 79 °F /  26.1 °C 73.4 °F /  23 °C 29.8in /  1007.9hPa NO 1.9mph /  3km/h 5mph /  8km/h 83% 0in /  0.0mm
03:04 78.8 °F /  26 °C 73.2 °F /  22.9 °C 29.8in /  1007.9hPa ONO 2mph /  3.2km/h 5mph /  8km/h 83% 0in /  0.0mm
03:09 78.8 °F /  26 °C 73.2 °F /  22.9 °C 29.8in /  1007.7hPa NO 2mph /  3.2km/h 5mph /  8km/h 83% 0in /  0.0mm
03:14 78.8 °F /  26 °C 73.2 °F /  22.9 °C 29.8in /  1007.7hPa NO 2mph /  3.2km/h 4mph /  6.4km/h 83% 0in /  0.0mm
03:19 78.8 °F /  26 °C 73.2 °F /  22.9 °C 29.8in /  1007.7hPa NO 2mph /  3.2km/h 3.5mph /  5.6km/h 83% 0in /  0.0mm
03:24 78.8 °F /  26 °C 73.2 °F /  22.9 °C 29.8in /  1007.6hPa NO 1.4mph /  2.3km/h 3.6mph /  5.8km/h 83% 0in /  0.0mm
03:29 78.8 °F /  26 °C 73.2 °F /  22.9 °C 29.8in /  1007.6hPa NO 1.4mph /  2.2km/h 4mph /  6.4km/h 83% 0in /  0.0mm
03:34 78.8 °F /  26 °C 73.2 °F /  22.9 °C 29.8in /  1007.6hPa NO 0.1mph /  0.1km/h 2.3mph /  3.7km/h 83% 0in /  0.0mm
03:39 78.8 °F /  26 °C 73 °F /  22.8 °C 29.8in /  1007.6hPa ESE 0.3mph /  0.5km/h 6.2mph /  10km/h 82.7% 0in /  0.0mm
03:44 78.4 °F /  25.8 °C 72.9 °F /  22.7 °C 29.8in /  1007.6hPa SE 1.8mph /  2.9km/h 6mph /  9.7km/h 82.9% 0in /  0.0mm
03:49 78.4 °F /  25.8 °C 72.9 °F /  22.7 °C 29.8in /  1007.6hPa SE 1.9mph /  3.1km/h 5mph /  8km/h 83% 0in /  0.0mm
03:54 78.4 °F /  25.8 °C 72.9 °F /  22.7 °C 29.8in /  1007.5hPa SE 2.4mph /  3.9km/h 3mph /  4.8km/h 83% 0in /  0.0mm
03:59 78.4 °F /  25.8 °C 72.9 °F /  22.7 °C 29.8in /  1007.5hPa SE 1.9mph /  3km/h 5.9mph /  9.5km/h 83% 0in /  0.0mm
04:04 78.4 °F /  25.8 °C 72.5 °F /  22.5 °C 29.8in /  1007.7hPa Calm   6mph /  9.7km/h 82.2% 0in /  0.0mm
04:09 78.4 °F /  25.8 °C 72.1 °F /  22.3 °C 29.8in /  1007.7hPa SE 0.3mph /  0.5km/h 6mph /  9.7km/h 81.1% 0in /  0.0mm
04:14 78.4 °F /  25.8 °C 72 °F /  22.2 °C 29.8in /  1007.7hPa Este 2mph /  3.2km/h 3.6mph /  5.8km/h 80.7% 0in /  0.0mm
04:19 78.4 °F /  25.8 °C 71.8 °F /  22.1 °C 29.8in /  1007.7hPa Este 2mph /  3.2km/h 4.6mph /  7.4km/h 80% 0in /  0.0mm
04:24 78.4 °F /  25.8 °C 71.8 °F /  22.1 °C 29.8in /  1007.7hPa Este 2mph /  3.2km/h 5mph /  8km/h 80% 0in /  0.0mm
04:29 78.4 °F /  25.8 °C 71.8 °F /  22.1 °C 29.8in /  1007.7hPa NNE 1.9mph /  3.1km/h 3.5mph /  5.6km/h 80.1% 0in /  0.0mm
04:34 78.4 °F /  25.8 °C 72.1 °F /  22.3 °C 29.8in /  1007.7hPa NNO 1.4mph /  2.2km/h 3mph /  4.8km/h 81% 0in /  0.0mm
04:39 78.3 °F /  25.7 °C 72 °F /  22.2 °C 29.8in /  1007.6hPa NNO 1.4mph /  2.2km/h 3mph /  4.8km/h 81% 0in /  0.0mm
04:44 78.3 °F /  25.7 °C 72 °F /  22.2 °C 29.8in /  1007.6hPa North 1.4mph /  2.2km/h 3.6mph /  5.8km/h 81.4% 0in /  0.0mm
04:49 78.3 °F /  25.7 °C 72.3 °F /  22.4 °C 29.8in /  1007.7hPa NNE 1.4mph /  2.2km/h 4mph /  6.4km/h 82.1% 0in /  0.0mm
04:54 78.3 °F /  25.7 °C 72.7 °F /  22.6 °C 29.8in /  1007.7hPa NNE 1.4mph /  2.2km/h 1.4mph /  2.3km/h 83% 0in /  0.0mm
04:59 78.3 °F /  25.7 °C 73 °F /  22.8 °C 29.8in /  1007.7hPa NNE 1.1mph /  1.8km/h 1mph /  1.6km/h 83.8% 0in /  0.0mm
05:04 78.3 °F /  25.7 °C 73 °F /  22.8 °C 29.8in /  1007.7hPa Calm     84% 0in /  0.0mm
05:09 78.3 °F /  25.7 °C 72.9 °F /  22.7 °C 29.8in /  1007.7hPa Calm   2.4mph /  3.9km/h 83.5% 0in /  0.0mm
05:14 78.3 °F /  25.7 °C 72.9 °F /  22.7 °C 29.8in /  1007.7hPa Calm   2.4mph /  3.9km/h 84% 0in /  0.0mm
05:19 78.1 °F /  25.6 °C 72.9 °F /  22.7 °C 29.8in /  1007.7hPa Calm   3.6mph /  5.8km/h 84% 0in /  0.0mm
05:24 78.1 °F /  25.6 °C 72.9 °F /  22.7 °C 29.8in /  1007.7hPa Calm   4mph /  6.4km/h 84% 0in /  0.0mm
05:29 78.1 °F /  25.6 °C 72.7 °F /  22.6 °C 29.8in /  1007.7hPa Calm   3mph /  4.8km/h 84% 0in /  0.0mm
05:34 77.9 °F /  25.5 °C 72.7 °F /  22.6 °C 29.8in /  1007.7hPa Calm     84% 0in /  0.0mm
05:39 77.7 °F /  25.4 °C 72.9 °F /  22.7 °C 29.8in /  1007.7hPa Calm     84.8% 0in /  0.0mm
05:44 77.7 °F /  25.4 °C 72.9 °F /  22.7 °C 29.8in /  1007.7hPa Calm     85% 0in /  0.0mm
05:49 77.7 °F /  25.4 °C 72.5 °F /  22.5 °C 29.8in /  1007.7hPa Calm     84% 0in /  0.0mm
05:54 77.7 °F /  25.4 °C 72.1 °F /  22.3 °C 29.8in /  1007.7hPa Calm     83% 0in /  0.0mm
05:59 77.5 °F /  25.3 °C 72 °F /  22.2 °C 29.8in /  1007.7hPa Calm   5.2mph /  8.4km/h 82.7% 0in /  0.0mm
06:04 77.5 °F /  25.3 °C 71.1 °F /  21.7 °C 29.8in /  1007.7hPa Calm   5mph /  8km/h 80.7% 0in /  0.0mm
06:09 77.5 °F /  25.3 °C 70.7 °F /  21.5 °C 29.8in /  1007.7hPa Sur 0.3mph /  0.5km/h 5mph /  8km/h 79.7% 0in /  0.0mm
06:14 77.4 °F /  25.2 °C 69.4 °F /  20.8 °C 29.8in /  1007.7hPa SSE 1.8mph /  2.9km/h 5.8mph /  9.3km/h 76.8% 0in /  0.0mm
06:19 77.4 °F /  25.2 °C 69.3 °F /  20.7 °C 29.8in /  1007.7hPa SSO 2mph /  3.2km/h 6.9mph /  11.1km/h 76% 0in /  0.0mm
06:24 77.5 °F /  25.3 °C 69.4 °F /  20.8 °C 29.8in /  1007.7hPa SSO 3.6mph /  5.8km/h 7mph /  11.3km/h 76% 0in /  0.0mm
06:29 77.5 °F /  25.3 °C 69.4 °F /  20.8 °C 29.8in /  1007.7hPa SSO 3.8mph /  6.1km/h 7.4mph /  11.9km/h 76% 0in /  0.0mm
06:34 77.4 °F /  25.2 °C 69.3 °F /  20.7 °C 29.8in /  1007.9hPa SSO 4.7mph /  7.6km/h 7mph /  11.3km/h 76% 0in /  0.0mm
06:39 77.4 °F /  25.2 °C 69.3 °F /  20.7 °C 29.8in /  1007.9hPa SSO 4.7mph /  7.5km/h 8.1mph /  13km/h 76% 0in /  0.0mm
06:44 77.4 °F /  25.2 °C 69.1 °F /  20.6 °C 29.8in /  1007.9hPa SO 4.3mph /  6.9km/h 8.1mph /  13km/h 75.7% 0in /  0.0mm
06:49 77.4 °F /  25.2 °C 68.9 °F /  20.5 °C 29.8in /  1007.9hPa SO 4.3mph /  6.9km/h 8.1mph /  13km/h 75.1% 0in /  0.0mm
06:54 77.4 °F /  25.2 °C 68.7 °F /  20.4 °C 29.8in /  1007.9hPa SO 4.3mph /  6.9km/h 8.1mph /  13km/h 75% 0in /  0.0mm
06:59 77.4 °F /  25.2 °C 68.7 °F /  20.4 °C 29.8in /  1007.9hPa SO 4.4mph /  7.1km/h 8mph /  12.9km/h 75% 0in /  0.0mm
07:04 77.4 °F /  25.2 °C 68.7 °F /  20.4 °C 29.8in /  1008.1hPa OSO 4.7mph /  7.6km/h 8.1mph /  13km/h 75% 0in /  0.0mm
07:09 77.4 °F /  25.2 °C 69.1 °F /  20.6 °C 29.8in /  1008.1hPa OSO 4.7mph /  7.6km/h 8.1mph /  13km/h 75.7% 0in /  0.0mm
07:14 77.4 °F /  25.2 °C 69.4 °F /  20.8 °C 29.8in /  1008.1hPa SO 4.7mph /  7.6km/h 8mph /  12.9km/h 76.8% 0in /  0.0mm
07:19 77.2 °F /  25.1 °C 69.4 °F /  20.8 °C 29.8in /  1008.3hPa SO 4.7mph /  7.5km/h 7mph /  11.3km/h 77% 0in /  0.0mm
07:24 77.2 °F /  25.1 °C 69.6 °F /  20.9 °C 29.8in /  1008.3hPa SO 4.3mph /  6.9km/h 7mph /  11.3km/h 77.8% 0in /  0.0mm
07:29 77.2 °F /  25.1 °C 69.8 °F /  21 °C 29.8in /  1008.3hPa SO 4.3mph /  6.9km/h 7mph /  11.3km/h 78% 0in /  0.0mm
07:34 77.2 °F /  25.1 °C 69.4 °F /  20.8 °C 29.8in /  1008.3hPa SSO 4.3mph /  6.9km/h 7.4mph /  11.9km/h 77.1% 0in /  0.0mm
07:39 77.2 °F /  25.1 °C 69.1 °F /  20.6 °C 29.8in /  1008.2hPa SSO 4.3mph /  7km/h 7mph /  11.3km/h 76.4% 0in /  0.0mm
07:44 77 °F /  25 °C 68.9 °F /  20.5 °C 29.8in /  1008.2hPa SSO 4.7mph /  7.6km/h 7.4mph /  11.9km/h 75.8% 0in /  0.0mm
07:49 77 °F /  25 °C 68.5 °F /  20.3 °C 29.8in /  1008.2hPa SSO 4.7mph /  7.5km/h 7mph /  11.3km/h 75% 0in /  0.0mm
07:54 77 °F /  25 °C 68.5 °F /  20.3 °C 29.8in /  1008.2hPa SSO 4.3mph /  6.9km/h 7mph /  11.3km/h 75% 0in /  0.0mm
07:59 77.2 °F /  25.1 °C 68.5 °F /  20.3 °C 29.8in /  1008.2hPa SO 4.3mph /  6.9km/h 7mph /  11.3km/h 75% 0in /  0.0mm
08:04 77.4 °F /  25.2 °C 68.9 °F /  20.5 °C 29.8in /  1008.2hPa SO 4.3mph /  6.9km/h 7mph /  11.3km/h 75.3% 0in /  0.0mm
08:09 77.5 °F /  25.3 °C 69.3 °F /  20.7 °C 29.8in /  1008.1hPa SO 4.2mph /  6.7km/h 6.9mph /  11.1km/h 75.8% 0in /  0.0mm
08:14 77.5 °F /  25.3 °C 68.9 °F /  20.5 °C 29.8in /  1008.1hPa SO 3.6mph /  5.8km/h 7.4mph /  11.9km/h 74.8% 0in /  0.0mm
08:19 77.7 °F /  25.4 °C 68.4 °F /  20.2 °C 29.8in /  1008.4hPa SO 3.9mph /  6.2km/h 8.7mph /  14km/h 72.9% 0in /  0.0mm
08:24 77.7 °F /  25.4 °C 68 °F /  20 °C 29.8in /  1008.4hPa OSO 5.2mph /  8.4km/h 9mph /  14.5km/h 71.9% 0in /  0.0mm
08:29 77.9 °F /  25.5 °C 67.6 °F /  19.8 °C 29.8in /  1008.4hPa OSO 5mph /  8.1km/h 8mph /  12.9km/h 71.1% 0in /  0.0mm
08:34 78.1 °F /  25.6 °C 67.6 °F /  19.8 °C 29.8in /  1008.4hPa OSO 4.3mph /  6.9km/h 6mph /  9.7km/h 70.4% 0in /  0.0mm
08:39 78.3 °F /  25.7 °C 67.6 °F /  19.8 °C 29.8in /  1008.3hPa Oeste 4.2mph /  6.7km/h 6mph /  9.7km/h 70% 0in /  0.0mm
08:44 78.3 °F /  25.7 °C 67.5 °F /  19.7 °C 29.8in /  1008.3hPa Oeste 3.6mph /  5.8km/h 6.9mph /  11.1km/h 69.6% 0in /  0.0mm
08:49 78.3 °F /  25.7 °C 67.6 °F /  19.8 °C 29.8in /  1008.3hPa Oeste 3.5mph /  5.6km/h 7mph /  11.3km/h 69.7% 0in /  0.0mm
08:54 78.4 °F /  25.8 °C 67.5 °F /  19.7 °C 29.8in /  1008.3hPa Oeste 3.1mph /  5km/h 6.2mph /  10km/h 69% 0in /  0.0mm
08:59 78.6 °F /  25.9 °C 67.5 °F /  19.7 °C 29.8in /  1008.3hPa Oeste 3.2mph /  5.2km/h 6mph /  9.7km/h 69% 0in /  0.0mm
09:04 78.8 °F /  26 °C 67.6 °F /  19.8 °C 29.8in /  1008.5hPa ONO 3.6mph /  5.8km/h 6.2mph /  10km/h 69% 0in /  0.0mm
09:09 79 °F /  26.1 °C 67.6 °F /  19.8 °C 29.8in /  1008.5hPa ONO 3.7mph /  5.9km/h 6.9mph /  11.1km/h 68.2% 0in /  0.0mm
09:14 79.2 °F /  26.2 °C 67.6 °F /  19.8 °C 29.8in /  1008.5hPa Oeste 4mph /  6.4km/h 7mph /  11.3km/h 67.9% 0in /  0.0mm
09:19 79.3 °F /  26.3 °C 67.6 °F /  19.8 °C 29.8in /  1008.7hPa Oeste 3.9mph /  6.2km/h 6mph /  9.7km/h 67.3% 0in /  0.0mm
09:24 79.7 °F /  26.5 °C 67.8 °F /  19.9 °C 29.8in /  1008.7hPa OSO 3.1mph /  5km/h 6mph /  9.7km/h 67% 0in /  0.0mm
09:29 80.2 °F /  26.8 °C 67.8 °F /  19.9 °C 29.8in /  1008.7hPa Oeste 2.9mph /  4.7km/h 5.9mph /  9.5km/h 66.3% 0in /  0.0mm
09:34 80.6 °F /  27 °C 68.2 °F /  20.1 °C 29.8in /  1008.8hPa ONO 2mph /  3.2km/h 6mph /  9.7km/h 66% 0in /  0.0mm
09:39 81 °F /  27.2 °C 68.5 °F /  20.3 °C 29.8in /  1008.8hPa ONO 2.2mph /  3.5km/h 6mph /  9.7km/h 66% 0in /  0.0mm
09:44 81.3 °F /  27.4 °C 68.5 °F /  20.3 °C 29.8in /  1008.8hPa Oeste 2.9mph /  4.7km/h 5mph /  8km/h 64.9% 0in /  0.0mm
09:49 81.9 °F /  27.7 °C 68.5 °F /  20.3 °C 29.8in /  1008.9hPa Oeste 2.9mph /  4.7km/h 5.2mph /  8.4km/h 63.9% 0in /  0.0mm
09:54 82 °F /  27.8 °C 68.5 °F /  20.3 °C 29.8in /  1008.9hPa ONO 2.9mph /  4.7km/h 5mph /  8km/h 63.5% 0in /  0.0mm
09:59 82.6 °F /  28.1 °C 67.8 °F /  19.9 °C 29.8in /  1008.9hPa OSO 2.9mph /  4.7km/h 6.9mph /  11.1km/h 60.9% 0in /  0.0mm
10:04 83.1 °F /  28.4 °C 66.9 °F /  19.4 °C 29.8in /  1009.0hPa OSO 3.1mph /  5km/h 7mph /  11.3km/h 58.1% 0in /  0.0mm
10:09 83.7 °F /  28.7 °C 65.3 °F /  18.5 °C 29.8in /  1009.0hPa SO 3.1mph /  5km/h 9.2mph /  14.8km/h 54.2% 0in /  0.0mm
10:14 84.4 °F /  29.1 °C 65.7 °F /  18.7 °C 29.8in /  1009.0hPa OSO 3.6mph /  5.8km/h 9mph /  14.5km/h 53.5% 0in /  0.0mm
10:19 84.9 °F /  29.4 °C 65.3 °F /  18.5 °C 29.8in /  1009.0hPa SSO 3.6mph /  5.8km/h 7.4mph /  11.9km/h 52% 0in /  0.0mm
10:24 85.5 °F /  29.7 °C 64.8 °F /  18.2 °C 29.8in /  1009.0hPa SSO 3.6mph /  5.8km/h 8.5mph /  13.7km/h 50.2% 0in /  0.0mm
10:29 85.6 °F /  29.8 °C 64.2 °F /  17.9 °C 29.8in /  1009.0hPa SSO 4mph /  6.4km/h 9mph /  14.5km/h 48.6% 0in /  0.0mm
10:34 86 °F /  30 °C 62.8 °F /  17.1 °C 29.8in /  1009.0hPa SSO 5.9mph /  9.5km/h 8.5mph /  13.7km/h 45.9% 0in /  0.0mm
10:39 86.4 °F /  30.2 °C 61.9 °F /  16.6 °C 29.8in /  1009.0hPa SSO 5.8mph /  9.4km/h 9.2mph /  14.8km/h 44.1% 0in /  0.0mm
10:44 86.4 °F /  30.2 °C 61.7 °F /  16.5 °C 29.8in /  1009.0hPa SO 5.4mph /  8.7km/h 9mph /  14.5km/h 43.8% 0in /  0.0mm
10:49 86.7 °F /  30.4 °C 62.2 °F /  16.8 °C 29.8in /  1009.2hPa SSO 5.2mph /  8.4km/h 8.1mph /  13km/h 44% 0in /  0.0mm
10:54 87.3 °F /  30.7 °C 61.9 °F /  16.6 °C 29.8in /  1009.2hPa SSO 4.3mph /  6.9km/h 8mph /  12.9km/h 42.9% 0in /  0.0mm
10:59 87.6 °F /  30.9 °C 61 °F /  16.1 °C 29.8in /  1009.2hPa SO 4.3mph /  6.9km/h 7mph /  11.3km/h 40.9% 0in /  0.0mm
11:04 88 °F /  31.1 °C 59.4 °F /  15.2 °C 29.8in /  1009.3hPa SO 4.3mph /  6.9km/h 8.5mph /  13.7km/h 38.2% 0in /  0.0mm
11:09 88.2 °F /  31.2 °C 60.1 °F /  15.6 °C 29.8in /  1009.3hPa SSO 4.3mph /  6.9km/h 9mph /  14.5km/h 39% 0in /  0.0mm
11:14 88.7 °F /  31.5 °C 59.7 °F /  15.4 °C 29.8in /  1009.3hPa Sur 4mph /  6.5km/h 7.4mph /  11.9km/h 37.8% 0in /  0.0mm
11:19 89.2 °F /  31.8 °C 60.1 °F /  15.6 °C 29.8in /  1009.3hPa SSO 4mph /  6.5km/h 7mph /  11.3km/h 37.8% 0in /  0.0mm
11:24 89.8 °F /  32.1 °C 59.5 °F /  15.3 °C 29.8in /  1009.3hPa SO 4mph /  6.5km/h 8.1mph /  13km/h 36.3% 0in /  0.0mm
11:29 90.1 °F /  32.3 °C 57.9 °F /  14.4 °C 29.8in /  1009.3hPa SO 4mph /  6.5km/h 10.4mph /  16.7km/h 34% 0in /  0.0mm
11:34 90.7 °F /  32.6 °C 56.8 °F /  13.8 °C 29.8in /  1009.3hPa OSO 4mph /  6.5km/h 10mph /  16.1km/h 32.1% 0in /  0.0mm
11:39 91 °F /  32.8 °C 57.4 °F /  14.1 °C 29.8in /  1009.1hPa SO 4.2mph /  6.7km/h 9mph /  14.5km/h 32.4% 0in /  0.0mm
11:44 91.4 °F /  33 °C 56.5 °F /  13.6 °C 29.8in /  1009.1hPa SO 4.7mph /  7.6km/h 11.5mph /  18.5km/h 31% 0in /  0.0mm
11:49 91.8 °F /  33.2 °C 56.8 °F /  13.8 °C 29.8in /  1009.2hPa SO 4.8mph /  7.8km/h 12mph /  19.3km/h 30.9% 0in /  0.0mm
11:54 92.5 °F /  33.6 °C 55.9 °F /  13.3 °C 29.8in /  1009.2hPa SO 5.4mph /  8.7km/h 9mph /  14.5km/h 29.4% 0in /  0.0mm
11:59 93 °F /  33.9 °C 55.9 °F /  13.3 °C 29.8in /  1009.2hPa SO 5.2mph /  8.3km/h 9mph /  14.5km/h 29% 0in /  0.0mm
12:04 93.6 °F /  34.2 °C 56.5 °F /  13.6 °C 29.8in /  1009.2hPa SO 4.3mph /  6.9km/h 9mph /  14.5km/h 29% 0in /  0.0mm
12:09 94.3 °F /  34.6 °C 55.6 °F /  13.1 °C 29.8in /  1009.1hPa SO 4.3mph /  6.9km/h 8.1mph /  13km/h 27.4% 0in /  0.0mm
12:14 94.5 °F /  34.7 °C 55.4 °F /  13 °C 29.8in /  1009.1hPa OSO 4mph /  6.5km/h 10.4mph /  16.7km/h 27.1% 0in /  0.0mm
12:19 94.5 °F /  34.7 °C 55.2 °F /  12.9 °C 29.8in /  1009.1hPa OSO 4.2mph /  6.8km/h 10mph /  16.1km/h 27% 0in /  0.0mm
12:24 94.6 °F /  34.8 °C 54.7 °F /  12.6 °C 29.8in /  1009.0hPa OSO 5.2mph /  8.4km/h 10mph /  16.1km/h 26.2% 0in /  0.0mm
12:29 94.8 °F /  34.9 °C 54.7 °F /  12.6 °C 29.8in /  1009.0hPa Oeste 4.9mph /  7.9km/h 7mph /  11.3km/h 26% 0in /  0.0mm
12:34 95.4 °F /  35.2 °C 52.7 °F /  11.5 °C 29.8in /  1009.0hPa ONO 3.6mph /  5.8km/h 11.5mph /  18.5km/h 23.9% 0in /  0.0mm
12:39 95.7 °F /  35.4 °C 52 °F /  11.1 °C 29.8in /  1008.9hPa NO 4mph /  6.4km/h 12mph /  19.3km/h 23% 0in /  0.0mm
12:44 95.9 °F /  35.5 °C 51.3 °F /  10.7 °C 29.8in /  1008.9hPa NO 5.9mph /  9.5km/h 12mph /  19.3km/h 22.2% 0in /  0.0mm
12:49 96.1 °F /  35.6 °C 51.1 °F /  10.6 °C 29.8in /  1008.9hPa ONO 5.8mph /  9.4km/h 10mph /  16.1km/h 22% 0in /  0.0mm
12:54 96.1 °F /  35.6 °C 50.7 °F /  10.4 °C 29.8in /  1008.7hPa ONO 5.4mph /  8.7km/h 9mph /  14.5km/h 21.7% 0in /  0.0mm
12:59 96.4 °F /  35.8 °C 50.4 °F /  10.2 °C 29.8in /  1008.7hPa ONO 5mph /  8.1km/h 8mph /  12.9km/h 21.2% 0in /  0.0mm
13:04 97 °F /  36.1 °C 50.5 °F /  10.3 °C 29.8in /  1008.7hPa NO 3.6mph /  5.8km/h 8.1mph /  13km/h 21% 0in /  0.0mm
13:09 97.5 °F /  36.4 °C 50.4 °F /  10.2 °C 29.8in /  1008.6hPa ONO 3.5mph /  5.6km/h 10.7mph /  17.2km/h 20.5% 0in /  0.0mm
13:14 97.7 °F /  36.5 °C 49.8 °F /  9.9 °C 29.8in /  1008.6hPa NO 3.1mph /  5km/h 11mph /  17.7km/h 20% 0in /  0.0mm
13:19 97.5 °F /  36.4 °C 49.8 °F /  9.9 °C 29.8in /  1008.6hPa ONO 3.5mph /  5.6km/h 10.7mph /  17.2km/h 20% 0in /  0.0mm
13:24 97.9 °F /  36.6 °C 49.8 °F /  9.9 °C 29.8in /  1008.6hPa ONO 5.4mph /  8.7km/h 11mph /  17.7km/h 19.9% 0in /  0.0mm
13:29 98.1 °F /  36.7 °C 49.3 °F /  9.6 °C 29.8in /  1008.6hPa NO 5.5mph /  8.9km/h 10.4mph /  16.7km/h 19.3% 0in /  0.0mm
13:34 98.4 °F /  36.9 °C 48.9 °F /  9.4 °C 29.8in /  1008.6hPa ONO 6.2mph /  10km/h 10.4mph /  16.7km/h 18.9% 0in /  0.0mm
13:39 98.6 °F /  37 °C 49.3 °F /  9.6 °C 29.8in /  1008.5hPa Oeste 6mph /  9.6km/h 10mph /  16.1km/h 19% 0in /  0.0mm
13:44 99 °F /  37.2 °C 49.3 °F /  9.6 °C 29.8in /  1008.5hPa NO 4.7mph /  7.6km/h 9.2mph /  14.8km/h 18.8% 0in /  0.0mm
13:49 99.3 °F /  37.4 °C 49.8 °F /  9.9 °C 29.8in /  1008.5hPa NO 4.8mph /  7.7km/h 9mph /  14.5km/h 19% 0in /  0.0mm
13:54 99.9 °F /  37.7 °C 49.3 °F /  9.6 °C 29.8in /  1008.3hPa NE 5.2mph /  8.4km/h 8mph /  12.9km/h 18.4% 0in /  0.0mm
13:59 100 °F /  37.8 °C 49.6 °F /  9.8 °C 29.8in /  1008.3hPa NE 4.8mph /  7.8km/h 7mph /  11.3km/h 18.6% 0in /  0.0mm
14:04 100.2 °F /  37.9 °C 49.5 °F /  9.7 °C 29.8in /  1008.3hPa NNO 3.6mph /  5.8km/h 7mph /  11.3km/h 18.2% 0in /  0.0mm
14:09 100.9 °F /  38.3 °C 50.2 °F /  10.1 °C 29.8in /  1008.3hPa Oeste 3.3mph /  5.3km/h 5mph /  8km/h 18.3% 0in /  0.0mm
14:14 101.7 °F /  38.7 °C 49.6 °F /  9.8 °C 29.8in /  1008.3hPa NO 1.8mph /  2.9km/h 6.9mph /  11.1km/h 17.7% 0in /  0.0mm
14:19 101.8 °F /  38.8 °C 48.9 °F /  9.4 °C 29.8in /  1008.3hPa SSE 2.1mph /  3.4km/h 9.2mph /  14.8km/h 17.1% 0in /  0.0mm
14:24 101.7 °F /  38.7 °C 48.9 °F /  9.4 °C 29.8in /  1008.3hPa SO 3.6mph /  5.8km/h 9mph /  14.5km/h 17.2% 0in /  0.0mm
14:29 101.5 °F /  38.6 °C 48.6 °F /  9.2 °C 29.8in /  1008.3hPa OSO 3.5mph /  5.6km/h 6mph /  9.7km/h 17% 0in /  0.0mm
14:34 101.7 °F /  38.7 °C 48.7 °F /  9.3 °C 29.8in /  1008.3hPa Oeste 2.9mph /  4.7km/h 6mph /  9.7km/h 17% 0in /  0.0mm
14:39 101.7 °F /  38.7 °C 49.5 °F /  9.7 °C 29.8in /  1008.2hPa Oeste 2.9mph /  4.7km/h 6mph /  9.7km/h 17.4% 0in /  0.0mm
14:44 101.8 °F /  38.8 °C 50.2 °F /  10.1 °C 29.8in /  1008.2hPa NE 2.9mph /  4.7km/h 6.9mph /  11.1km/h 17.9% 0in /  0.0mm
14:49 101.7 °F /  38.7 °C 48.9 °F /  9.4 °C 29.8in /  1008.2hPa NE 3mph /  4.9km/h 7mph /  11.3km/h 17.2% 0in /  0.0mm
14:54 101.5 °F /  38.6 °C 49.1 °F /  9.5 °C 29.8in /  1008.1hPa ENE 4mph /  6.4km/h 7mph /  11.3km/h 17.3% 0in /  0.0mm
14:59 101.5 °F /  38.6 °C 48.6 °F /  9.2 °C 29.8in /  1008.1hPa ENE 3.8mph /  6.1km/h 6.9mph /  11.1km/h 17% 0in /  0.0mm
15:04 101.3 °F /  38.5 °C 48.4 °F /  9.1 °C 29.8in /  1008.1hPa NE 3.1mph /  5km/h 8.1mph /  13km/h 17% 0in /  0.0mm
15:09 101.1 °F /  38.4 °C 48.6 °F /  9.2 °C 29.8in /  1008.0hPa NE 3.2mph /  5.1km/h 8mph /  12.9km/h 17.1% 0in /  0.0mm
15:14 101.5 °F /  38.6 °C 48.4 °F /  9.1 °C 29.8in /  1008.0hPa NNE 3.6mph /  5.8km/h 6mph /  9.7km/h 16.9% 0in /  0.0mm
15:19 101.8 °F /  38.8 °C 47.8 °F /  8.8 °C 29.8in /  1008.0hPa ONO 3.5mph /  5.6km/h 5.2mph /  8.4km/h 16.4% 0in /  0.0mm
15:24 102.4 °F /  39.1 °C 47.7 °F /  8.7 °C 29.8in /  1007.8hPa OSO 2.9mph /  4.7km/h 5mph /  8km/h 16% 0in /  0.0mm
15:29 102.7 °F /  39.3 °C 47.8 °F /  8.8 °C 29.8in /  1007.8hPa SSE 2.7mph /  4.4km/h 5mph /  8km/h 16% 0in /  0.0mm
15:34 103.1 °F /  39.5 °C 48 °F /  8.9 °C 29.8in /  1007.8hPa OSO 2mph /  3.2km/h 4.6mph /  7.4km/h 15.9% 0in /  0.0mm
15:39 103.5 °F /  39.7 °C 48.4 °F /  9.1 °C 29.8in /  1007.7hPa NO 2.1mph /  3.3km/h 5.9mph /  9.5km/h 16% 0in /  0.0mm
15:44 103.3 °F /  39.6 °C 47.8 °F /  8.8 °C 29.8in /  1007.7hPa NNO 2.4mph /  3.9km/h 6mph /  9.7km/h 15.6% 0in /  0.0mm
15:49 103.1 °F /  39.5 °C 48.2 °F /  9 °C 29.8in /  1007.7hPa North 2.4mph /  3.9km/h 5mph /  8km/h 16% 0in /  0.0mm
15:54 103.3 °F /  39.6 °C 49.1 °F /  9.5 °C 29.8in /  1007.6hPa ENE 2.4mph /  3.9km/h 5.8mph /  9.3km/h 16.5% 0in /  0.0mm
15:59 103.3 °F /  39.6 °C 48.4 °F /  9.1 °C 29.8in /  1007.6hPa NE 2.5mph /  4km/h 6mph /  9.7km/h 16% 0in /  0.0mm
16:04 103.1 °F /  39.5 °C 48.4 °F /  9.1 °C 29.8in /  1007.6hPa NNE 2.9mph /  4.6km/h 8.7mph /  14km/h 16.1% 0in /  0.0mm
16:09 102.7 °F /  39.3 °C 51.6 °F /  10.9 °C 29.8in /  1007.4hPa Este 3.2mph /  5.1km/h 13mph /  20.9km/h 18.7% 0in /  0.0mm
16:14 101.8 °F /  38.8 °C 61.5 °F /  16.4 °C 29.8in /  1007.4hPa ESE 4.7mph /  7.6km/h 13mph /  20.9km/h 27% 0in /  0.0mm
16:19 100.8 °F /  38.2 °C 63 °F /  17.2 °C 29.8in /  1007.4hPa ESE 5.2mph /  8.4km/h 13mph /  20.9km/h 29.4% 0in /  0.0mm
16:24 100 °F /  37.8 °C 63.1 °F /  17.3 °C 29.7in /  1007.3hPa SE 7.6mph /  12.2km/h 15.2mph /  24.5km/h 30% 0in /  0.0mm
16:29 99.9 °F /  37.7 °C 63.7 °F /  17.6 °C 29.7in /  1007.3hPa ESE 7.7mph /  12.4km/h 15.2mph /  24.5km/h 30.8% 0in /  0.0mm
16:34 99.7 °F /  37.6 °C 63.5 °F /  17.5 °C 29.8in /  1007.4hPa SE 8.1mph /  13km/h 15mph /  24.1km/h 30.9% 0in /  0.0mm
16:39 99.1 °F /  37.3 °C 64 °F /  17.8 °C 29.8in /  1007.4hPa SE 8.2mph /  13.2km/h 15mph /  24.1km/h 31.9% 0in /  0.0mm
16:44 99.1 °F /  37.3 °C 64 °F /  17.8 °C 29.8in /  1007.4hPa SE 8.7mph /  14km/h 14mph /  22.5km/h 31.9% 0in /  0.0mm
16:49 99.1 °F /  37.3 °C 64 °F /  17.8 °C 29.8in /  1007.4hPa ESE 8.5mph /  13.7km/h 15mph /  24.1km/h 32% 0in /  0.0mm
16:54 98.8 °F /  37.1 °C 63.9 °F /  17.7 °C 29.7in /  1007.3hPa ESE 7.4mph /  11.9km/h 15mph /  24.1km/h 32% 0in /  0.0mm
16:59 99 °F /  37.2 °C 64 °F /  17.8 °C 29.7in /  1007.3hPa ESE 7.6mph /  12.3km/h 15mph /  24.1km/h 32% 0in /  0.0mm
17:04 99.1 °F /  37.3 °C 63.3 °F /  17.4 °C 29.7in /  1007.3hPa ESE 8.5mph /  13.7km/h 17.3mph /  27.8km/h 31.1% 0in /  0.0mm
17:09 99.1 °F /  37.3 °C 63.1 °F /  17.3 °C 29.7in /  1007.1hPa ESE 8.9mph /  14.3km/h 17mph /  27.4km/h 31% 0in /  0.0mm
17:14 99.1 °F /  37.3 °C 63.1 °F /  17.3 °C 29.7in /  1007.1hPa ESE 10.7mph /  17.2km/h 16.1mph /  25.9km/h 31% 0in /  0.0mm
17:19 99 °F /  37.2 °C 63 °F /  17.2 °C 29.7in /  1007.3hPa ESE 10.6mph /  17.1km/h 16mph /  25.7km/h 31% 0in /  0.0mm
17:24 98.6 °F /  37 °C 62.8 °F /  17.1 °C 29.7in /  1007.3hPa ESE 10.2mph /  16.4km/h 16.1mph /  25.9km/h 30.9% 0in /  0.0mm
17:29 98.4 °F /  36.9 °C 62.4 °F /  16.9 °C 29.7in /  1007.3hPa ESE 10.2mph /  16.4km/h 17.3mph /  27.8km/h 30.8% 0in /  0.0mm
17:34 98.4 °F /  36.9 °C 61.5 °F /  16.4 °C 29.7in /  1007.3hPa ESE 10mph /  16.1km/h 17mph /  27.4km/h 29.9% 0in /  0.0mm
17:39 98.4 °F /  36.9 °C 60.8 °F /  16 °C 29.7in /  1007.1hPa ESE 9.9mph /  16km/h 16.3mph /  26.2km/h 29% 0in /  0.0mm
17:44 98.4 °F /  36.9 °C 61 °F /  16.1 °C 29.7in /  1007.1hPa ESE 9.7mph /  15.6km/h 16mph /  25.7km/h 29.3% 0in /  0.0mm
17:49 98.4 °F /  36.9 °C 61 °F /  16.1 °C 29.7in /  1007.1hPa ESE 9.6mph /  15.5km/h 16.1mph /  25.9km/h 29.2% 0in /  0.0mm
17:54 98.8 °F /  37.1 °C 60.6 °F /  15.9 °C 29.7in /  1007.1hPa ESE 9.2mph /  14.8km/h 19mph /  30.6km/h 28.8% 0in /  0.0mm
17:59 98.8 °F /  37.1 °C 60.1 °F /  15.6 °C 29.7in /  1007.1hPa ESE 9.4mph /  15.1km/h 19mph /  30.6km/h 28.1% 0in /  0.0mm
18:04 98.6 °F /  37 °C 60.1 °F /  15.6 °C 29.7in /  1007.3hPa ESE 10.2mph /  16.4km/h 15mph /  24.1km/h 28.1% 0in /  0.0mm
18:09 98.4 °F /  36.9 °C 60.6 °F /  15.9 °C 29.7in /  1007.3hPa ESE 9.9mph /  16km/h 15mph /  24.1km/h 29% 0in /  0.0mm
18:14 98.2 °F /  36.8 °C 60.6 °F /  15.9 °C 29.7in /  1007.3hPa Este 8.5mph /  13.7km/h 14mph /  22.5km/h 29.1% 0in /  0.0mm
18:19 97.9 °F /  36.6 °C 61.9 °F /  16.6 °C 29.8in /  1007.4hPa NE 8.3mph /  13.4km/h 12.7mph /  20.4km/h 30.9% 0in /  0.0mm
18:24 96.4 °F /  35.8 °C 62.4 °F /  16.9 °C 29.8in /  1007.4hPa NE 7.4mph /  11.9km/h 17.5mph /  28.2km/h 32.8% 0in /  0.0mm
18:29 95.2 °F /  35.1 °C 62.4 °F /  16.9 °C 29.8in /  1007.4hPa NE 7.6mph /  12.3km/h 17mph /  27.4km/h 34.1% 0in /  0.0mm
18:34 94.3 °F /  34.6 °C 61.9 °F /  16.6 °C 29.8in /  1007.4hPa NNE 8.7mph /  14km/h 20.8mph /  33.5km/h 34.3% 0in /  0.0mm
18:39 93.4 °F /  34.1 °C 61.7 °F /  16.5 °C 29.8in /  1007.4hPa NE 9.2mph /  14.8km/h 21mph /  33.8km/h 35% 0in /  0.0mm
18:44 92.8 °F /  33.8 °C 62.1 °F /  16.7 °C 29.8in /  1007.4hPa NE 11.8mph /  19km/h 21mph /  33.8km/h 36% 0in /  0.0mm
18:49 92.7 °F /  33.7 °C 62.6 °F /  17 °C 29.8in /  1007.5hPa NNE 11.4mph /  18.4km/h 20.8mph /  33.5km/h 37% 0in /  0.0mm
18:54 92.1 °F /  33.4 °C 62.6 °F /  17 °C 29.8in /  1007.5hPa NE 9.7mph /  15.6km/h 21mph /  33.8km/h 37.4% 0in /  0.0mm
18:59 91.9 °F /  33.3 °C 62.6 °F /  17 °C 29.8in /  1007.5hPa NNE 10mph /  16.1km/h 18mph /  29km/h 38% 0in /  0.0mm
19:04 91.8 °F /  33.2 °C 63.1 °F /  17.3 °C 29.8in /  1007.5hPa NNE 11.2mph /  18km/h 17mph /  27.4km/h 38.8% 0in /  0.0mm
19:09 91.8 °F /  33.2 °C 63.5 °F /  17.5 °C 29.8in /  1007.5hPa NNE 11.1mph /  17.8km/h 18.4mph /  29.6km/h 39.3% 0in /  0.0mm
19:14 91.8 °F /  33.2 °C 63.3 °F /  17.4 °C 29.8in /  1007.5hPa NNE 10.2mph /  16.4km/h 18mph /  29km/h 39% 0in /  0.0mm
19:19 91.8 °F /  33.2 °C 63.3 °F /  17.4 °C 29.8in /  1007.6hPa NNE 10.1mph /  16.3km/h 17.3mph /  27.8km/h 39% 0in /  0.0mm
19:24 91.6 °F /  33.1 °C 63 °F /  17.2 °C 29.8in /  1007.6hPa NNE 9.7mph /  15.6km/h 17mph /  27.4km/h 38.6% 0in /  0.0mm
19:29 91.6 °F /  33.1 °C 62.2 °F /  16.8 °C 29.8in /  1007.6hPa NNE 9.8mph /  15.7km/h 17.5mph /  28.2km/h 37.8% 0in /  0.0mm
19:34 91.4 °F /  33 °C 62.8 °F /  17.1 °C 29.8in /  1007.6hPa NNE 10mph /  16.1km/h 17mph /  27.4km/h 38.6% 0in /  0.0mm
19:39 91.2 °F /  32.9 °C 62.2 °F /  16.8 °C 29.8in /  1007.6hPa NNE 10mph /  16.1km/h 16.1mph /  25.9km/h 38% 0in /  0.0mm
19:44 91 °F /  32.8 °C 61.9 °F /  16.6 °C 29.8in /  1007.6hPa NNE 10mph /  16.1km/h 18.1mph /  29.1km/h 38% 0in /  0.0mm
19:49 90.5 °F /  32.5 °C 61.9 °F /  16.6 °C 29.8in /  1007.7hPa NNE 10.3mph /  16.5km/h 19mph /  30.6km/h 38.5% 0in /  0.0mm
19:54 90.1 °F /  32.3 °C 62.4 °F /  16.9 °C 29.8in /  1007.7hPa NNE 11.4mph /  18.4km/h 19mph /  30.6km/h 39.8% 0in /  0.0mm
19:59 90 °F /  32.2 °C 63.3 °F /  17.4 °C 29.8in /  1007.7hPa NE 11.4mph /  18.3km/h 18mph /  29km/h 41.6% 0in /  0.0mm
20:04 89.4 °F /  31.9 °C 63.9 °F /  17.7 °C 29.8in /  1007.9hPa NE 11.2mph /  18km/h 19.7mph /  31.7km/h 42.8% 0in /  0.0mm
20:09 89.2 °F /  31.8 °C 63.7 °F /  17.6 °C 29.8in /  1007.9hPa NNE 11.1mph /  17.9km/h 20mph /  32.2km/h 42.7% 0in /  0.0mm
20:14 89.1 °F /  31.7 °C 63.1 °F /  17.3 °C 29.8in /  1007.9hPa NNE 10.7mph /  17.2km/h 19mph /  30.6km/h 42.1% 0in /  0.0mm
20:19 88.9 °F /  31.6 °C 62.4 °F /  16.9 °C 29.8in /  1008.0hPa NNE 10.7mph /  17.2km/h 16.1mph /  25.9km/h 41.3% 0in /  0.0mm
20:24 88.7 °F /  31.5 °C 61.9 °F /  16.6 °C 29.8in /  1008.0hPa NNE 10.7mph /  17.2km/h 16.3mph /  26.2km/h 41% 0in /  0.0mm
20:29 88.5 °F /  31.4 °C 61.7 °F /  16.5 °C 29.8in /  1008.0hPa NNE 10.7mph /  17.2km/h 16.1mph /  25.9km/h 41% 0in /  0.0mm
20:34 88.3 °F /  31.3 °C 61.7 °F /  16.5 °C 29.8in /  1008.2hPa NNE 10.7mph /  17.2km/h 16.1mph /  25.9km/h 41% 0in /  0.0mm
20:39 88.2 °F /  31.2 °C 61.5 °F /  16.4 °C 29.8in /  1008.2hPa NE 10.6mph /  17.1km/h 16mph /  25.7km/h 41% 0in /  0.0mm
20:44 88 °F /  31.1 °C 60.8 °F /  16 °C 29.8in /  1008.2hPa NNE 10.2mph /  16.4km/h 16.1mph /  25.9km/h 40.3% 0in /  0.0mm
20:49 88 °F /  31.1 °C 61.2 °F /  16.2 °C 29.8in /  1008.5hPa NE 10.2mph /  16.4km/h 16mph /  25.7km/h 41% 0in /  0.0mm
20:54 87.6 °F /  30.9 °C 60.6 °F /  15.9 °C 29.8in /  1008.5hPa NNE 10mph /  16.1km/h 14mph /  22.5km/h 40.4% 0in /  0.0mm
20:59 87.4 °F /  30.8 °C 60.3 °F /  15.7 °C 29.8in /  1008.5hPa NE 9.6mph /  15.4km/h 12.7mph /  20.4km/h 40% 0in /  0.0mm
21:04 87.4 °F /  30.8 °C 60.4 °F /  15.8 °C 29.8in /  1008.7hPa NNE 8.1mph /  13km/h 13mph /  20.9km/h 40.4% 0in /  0.0mm
21:09 87.3 °F /  30.7 °C 60.6 °F /  15.9 °C 29.8in /  1008.7hPa NNE 8.1mph /  13.1km/h 13mph /  20.9km/h 41% 0in /  0.0mm
21:14 87.1 °F /  30.6 °C 60.6 °F /  15.9 °C 29.8in /  1008.7hPa NNE 8.5mph /  13.7km/h 13mph /  20.9km/h 41% 0in /  0.0mm
21:19 86.9 °F /  30.5 °C 60.4 °F /  15.8 °C 29.8in /  1008.8hPa NE 8.3mph /  13.4km/h 13mph /  20.9km/h 41% 0in /  0.0mm
21:24 86.7 °F /  30.4 °C 61 °F /  16.1 °C 29.8in /  1008.8hPa NNE 7.6mph /  12.2km/h 13mph /  20.9km/h 42% 0in /  0.0mm
21:29 86.5 °F /  30.3 °C 60.8 °F /  16 °C 29.8in /  1008.8hPa NE 7.4mph /  11.9km/h 10.4mph /  16.7km/h 42% 0in /  0.0mm
21:34 86.5 °F /  30.3 °C 60.6 °F /  15.9 °C 29.8in /  1009.0hPa NE 6.4mph /  10.3km/h 10mph /  16.1km/h 42% 0in /  0.0mm
21:39 86.5 °F /  30.3 °C 60.6 °F /  15.9 °C 29.8in /  1009.0hPa NE 6.3mph /  10.2km/h 9.2mph /  14.8km/h 42% 0in /  0.0mm
21:44 86.5 °F /  30.3 °C 60.6 °F /  15.9 °C 29.8in /  1009.0hPa NE 5.9mph /  9.5km/h 11.8mph /  19km/h 42% 0in /  0.0mm
21:49 86.4 °F /  30.2 °C 60.6 °F /  15.9 °C 29.8in /  1009.1hPa NE 6mph /  9.6km/h 12mph /  19.3km/h 42% 0in /  0.0mm
21:54 86.2 °F /  30.1 °C 60.1 °F /  15.6 °C 29.8in /  1009.1hPa NNE 6.2mph /  10km/h 12mph /  19.3km/h 41.5% 0in /  0.0mm
21:59 86 °F /  30 °C 59.5 °F /  15.3 °C 29.8in /  1009.1hPa NE 6.2mph /  10km/h 11.8mph /  19km/h 41.1% 0in /  0.0mm
22:04 85.8 °F /  29.9 °C 59.4 °F /  15.2 °C 29.8in /  1009.5hPa NNE 6.4mph /  10.3km/h 12mph /  19.3km/h 41% 0in /  0.0mm
22:09 85.8 °F /  29.9 °C 59.4 °F /  15.2 °C 29.8in /  1009.5hPa NE 6.5mph /  10.4km/h 11mph /  17.7km/h 41% 0in /  0.0mm
22:14 85.6 °F /  29.8 °C 59.4 °F /  15.2 °C 29.8in /  1009.5hPa NNE 6.9mph /  11.1km/h 11.5mph /  18.5km/h 41% 0in /  0.0mm
22:19 85.6 °F /  29.8 °C 59.2 °F /  15.1 °C 29.8in /  1009.9hPa NE 6.8mph /  10.9km/h 12mph /  19.3km/h 41% 0in /  0.0mm
22:24 85.5 °F /  29.7 °C 59.2 °F /  15.1 °C 29.8in /  1009.9hPa NNE 6.2mph /  10km/h 9mph /  14.5km/h 41% 0in /  0.0mm
22:29 85.5 °F /  29.7 °C 59 °F /  15 °C 29.8in /  1009.9hPa NNE 6.2mph /  9.9km/h 11.5mph /  18.5km/h 41% 0in /  0.0mm
22:34 85.3 °F /  29.6 °C 59 °F /  15 °C 29.8in /  1010.0hPa NNE 5.9mph /  9.5km/h 12mph /  19.3km/h 41.2% 0in /  0.0mm
22:39 84.9 °F /  29.4 °C 59.2 °F /  15.1 °C 29.8in /  1010.0hPa NNE 5.8mph /  9.4km/h 9.2mph /  14.8km/h 41.7% 0in /  0.0mm
22:44 84.7 °F /  29.3 °C 59.2 °F /  15.1 °C 29.8in /  1010.0hPa NNE 5.4mph /  8.7km/h 9mph /  14.5km/h 42% 0in /  0.0mm
22:49 84.6 °F /  29.2 °C 58.8 °F /  14.9 °C 29.8in /  1010.4hPa NE 5.3mph /  8.5km/h 8mph /  12.9km/h 42% 0in /  0.0mm
22:54 84.6 °F /  29.2 °C 58.8 °F /  14.9 °C 29.8in /  1010.4hPa NE 4.7mph /  7.6km/h 8.5mph /  13.7km/h 42% 0in /  0.0mm
22:59 84.4 °F /  29.1 °C 59 °F /  15 °C 29.8in /  1010.4hPa NE 5mph /  8.1km/h 9.7mph /  15.6km/h 42.3% 0in /  0.0mm
23:04 84.4 °F /  29.1 °C 59.5 °F /  15.3 °C 29.8in /  1010.4hPa NE 6.2mph /  10km/h 10mph /  16.1km/h 43.3% 0in /  0.0mm
23:09 84.4 °F /  29.1 °C 61 °F /  16.1 °C 29.8in /  1010.4hPa NE 6.2mph /  10km/h 10mph /  16.1km/h 45.5% 0in /  0.0mm
23:14 84.4 °F /  29.1 °C 62.2 °F /  16.8 °C 29.8in /  1010.4hPa NE 6.2mph /  10km/h 10mph /  16.1km/h 47.7% 0in /  0.0mm
23:19 84 °F /  28.9 °C 63.5 °F /  17.5 °C 29.8in /  1010.5hPa NE 6mph /  9.7km/h 9.2mph /  14.8km/h 50.1% 0in /  0.0mm
23:24 83.8 °F /  28.8 °C 63.9 °F /  17.7 °C 29.8in /  1010.5hPa NNE 5.2mph /  8.4km/h 9mph /  14.5km/h 51% 0in /  0.0mm
23:29 83.8 °F /  28.8 °C 63 °F /  17.2 °C 29.8in /  1010.5hPa North 4.8mph /  7.7km/h 7mph /  11.3km/h 49.8% 0in /  0.0mm
23:34 83.7 °F /  28.7 °C 62.8 °F /  17.1 °C 29.8in /  1010.5hPa NNO 2.9mph /  4.7km/h 5mph /  8km/h 49.6% 0in /  0.0mm
23:39 83.3 °F /  28.5 °C 62.6 °F /  17 °C 29.8in /  1010.5hPa NNE 2.7mph /  4.4km/h 4.7mph /  7.6km/h 49.8% 0in /  0.0mm
23:44 83.1 °F /  28.4 °C 63.3 °F /  17.4 °C 29.8in /  1010.5hPa NE 1.8mph /  2.9km/h 5.2mph /  8.4km/h 51.4% 0in /  0.0mm
23:49 82.9 °F /  28.3 °C 63.3 °F /  17.4 °C 29.8in /  1010.6hPa North 1.9mph /  3km/h 5mph /  8km/h 51.5% 0in /  0.0mm
23:54 82.9 °F /  28.3 °C 63 °F /  17.2 °C 29.8in /  1010.6hPa NNO 2mph /  3.2km/h 5mph /  8km/h 51% 0in /  0.0mm
23:59 82.9 °F /  28.3 °C 63 °F /  17.2 °C 29.8in /  1010.6hPa NNO 2.1mph /  3.4km/h 5mph /  8km/h 51% 0in /  0.0mm
Murcia-Puente Tocinos, España
Compliments of Weather Underground - 3 mb

La estación de MeteoMurcia.com, publica sus datos en los siguientes proyectos:

Weather Underground PWS IMURCIAP2 Meteoclimatic www.awekas.at

W3Counter
Web Analytics